createdAt,value
2018-12-12T00:00:15.082Z,87.80
2018-12-12T00:02:44.210Z,88.90
2018-12-12T00:05:13.164Z,89.60
2018-12-12T00:07:42.118Z,89.70
2018-12-12T00:12:49.035Z,87.80
2018-12-12T00:15:18.581Z,88.00
2018-12-12T00:17:48.089Z,89.00
2018-12-12T00:20:17.029Z,88.60
2018-12-12T00:22:46.020Z,90.00
2018-12-12T00:25:15.010Z,89.10
2018-12-12T00:27:43.975Z,89.50
2018-12-12T00:30:12.926Z,90.40
2018-12-12T00:32:41.853Z,90.50
2018-12-12T00:35:10.782Z,91.40
2018-12-12T00:37:39.758Z,91.20
2018-12-12T00:40:09.697Z,91.60
2018-12-12T00:42:38.794Z,92.40
2018-12-12T00:45:07.769Z,91.40
2018-12-12T00:47:36.711Z,91.70
2018-12-12T00:50:06.588Z,90.50
2018-12-12T00:52:35.525Z,87.90
2018-12-12T00:55:04.737Z,89.10
2018-12-12T00:57:34.333Z,90.00
2018-12-12T01:00:04.185Z,90.50
2018-12-12T01:02:33.154Z,89.50
2018-12-12T01:05:02.137Z,88.10
2018-12-12T01:07:31.164Z,88.80
2018-12-12T01:10:00.103Z,88.20
2018-12-12T01:12:29.042Z,88.20
2018-12-12T01:14:58.021Z,89.60
2018-12-12T01:17:26.961Z,89.30
2018-12-12T01:19:55.971Z,89.40
2018-12-12T01:22:24.910Z,89.30
2018-12-12T01:24:53.924Z,88.80
2018-12-12T01:27:22.894Z,89.60
2018-12-12T01:29:51.837Z,88.70
2018-12-12T01:32:20.805Z,89.30
2018-12-12T01:34:49.740Z,90.40
2018-12-12T01:37:19.000Z,89.70
2018-12-12T01:39:47.971Z,90.00
2018-12-12T01:42:16.921Z,91.20
2018-12-12T01:44:45.843Z,91.80
2018-12-12T01:47:14.824Z,88.00
2018-12-12T01:49:43.774Z,88.50
2018-12-12T01:52:12.749Z,89.60
2018-12-12T01:54:41.679Z,90.20
2018-12-12T01:57:10.680Z,91.50
2018-12-12T01:59:39.606Z,92.30
2018-12-12T02:02:08.532Z,92.80
2018-12-12T02:04:37.523Z,92.40
2018-12-12T02:07:06.444Z,91.50
2018-12-12T02:09:35.367Z,92.00
2018-12-12T02:12:04.332Z,92.30
2018-12-12T02:14:33.253Z,92.60
2018-12-12T02:17:02.202Z,93.80
2018-12-12T02:19:31.134Z,93.60
2018-12-12T02:22:00.105Z,94.20
2018-12-12T02:24:29.043Z,94.90
2018-12-12T02:26:57.969Z,93.70
2018-12-12T02:29:26.983Z,92.60
2018-12-12T02:31:55.913Z,93.40
2018-12-12T02:34:24.847Z,91.10
2018-12-12T02:36:53.798Z,91.60
2018-12-12T02:39:22.864Z,93.90
2018-12-12T02:41:51.823Z,92.20
2018-12-12T02:44:20.745Z,93.50
2018-12-12T02:46:49.689Z,94.30
2018-12-12T02:49:18.628Z,94.40
2018-12-12T02:51:47.564Z,91.90
2018-12-12T02:54:16.495Z,92.30
2018-12-12T02:56:45.434Z,93.70
2018-12-12T02:59:14.353Z,92.70
2018-12-12T03:01:43.279Z,94.00
2018-12-12T03:04:12.213Z,94.90
2018-12-12T03:06:41.159Z,95.70
2018-12-12T03:09:10.112Z,94.70
2018-12-12T03:11:39.081Z,94.80
2018-12-12T03:14:08.083Z,95.60
2018-12-12T03:16:37.101Z,96.30
2018-12-12T03:19:06.118Z,96.50
2018-12-12T03:21:35.131Z,96.40
2018-12-12T03:24:04.183Z,96.60
2018-12-12T03:26:33.114Z,96.40
2018-12-12T03:29:02.093Z,96.70
2018-12-12T03:31:31.055Z,96.70
2018-12-12T03:34:00.052Z,96.50
2018-12-12T03:36:28.994Z,96.80
2018-12-12T03:38:58.025Z,94.90
2018-12-12T03:41:26.953Z,93.30
2018-12-12T03:43:55.919Z,91.70
2018-12-12T03:46:24.993Z,91.20
2018-12-12T03:48:53.979Z,90.80
2018-12-12T03:51:22.976Z,89.70
2018-12-12T03:53:51.981Z,88.70
2018-12-12T03:56:20.878Z,89.10
2018-12-12T03:58:49.877Z,88.70
2018-12-12T04:01:18.802Z,88.70
2018-12-12T04:03:47.758Z,88.10
2018-12-12T04:06:16.731Z,87.90
2018-12-12T04:08:45.665Z,88.90
2018-12-12T04:11:15.550Z,89.40
2018-12-12T04:13:44.502Z,89.80
2018-12-12T04:16:13.689Z,89.90
2018-12-12T04:18:42.605Z,90.50
2018-12-12T04:21:11.547Z,91.10
2018-12-12T04:23:40.582Z,91.10
2018-12-12T04:26:09.580Z,92.00
2018-12-12T04:28:38.492Z,92.00
2018-12-12T04:31:07.427Z,92.70
2018-12-12T04:33:36.350Z,93.10
2018-12-12T04:36:05.275Z,93.60
2018-12-12T04:38:34.275Z,93.10
2018-12-12T04:41:03.205Z,92.40
2018-12-12T04:43:32.137Z,92.00
2018-12-12T04:46:01.167Z,90.60
2018-12-12T04:48:30.107Z,89.80
2018-12-12T04:50:59.084Z,90.10
2018-12-12T04:53:28.011Z,89.10
2018-12-12T04:55:56.966Z,89.00
2018-12-12T04:58:25.942Z,88.30
2018-12-12T05:00:54.913Z,87.90
2018-12-12T05:03:23.848Z,88.70
2018-12-12T05:05:52.772Z,86.90
2018-12-12T05:08:21.726Z,85.60
2018-12-12T05:10:50.680Z,85.70
2018-12-12T05:13:19.621Z,85.70
2018-12-12T05:15:48.568Z,85.70
2018-12-12T05:18:20.529Z,86.00
2018-12-12T05:20:49.452Z,86.00
2018-12-12T05:23:18.470Z,85.50
2018-12-12T05:25:47.403Z,85.80
2018-12-12T05:28:16.341Z,86.50
2018-12-12T05:30:45.289Z,86.10
2018-12-12T05:33:14.241Z,86.30
2018-12-12T05:35:43.169Z,86.90
2018-12-12T05:38:12.115Z,86.90
2018-12-12T05:40:41.282Z,86.80
2018-12-12T05:43:10.277Z,87.00
2018-12-12T05:45:39.454Z,87.30
2018-12-12T05:48:08.433Z,87.30
2018-12-12T05:50:37.448Z,87.50
2018-12-12T05:53:06.392Z,88.00
2018-12-12T05:55:35.413Z,88.60
2018-12-12T05:58:04.349Z,89.20
2018-12-12T06:00:33.282Z,87.70
2018-12-12T06:03:02.214Z,87.30
2018-12-12T06:05:31.136Z,88.00
2018-12-12T06:08:00.616Z,88.20
2018-12-12T06:10:29.550Z,88.90
2018-12-12T06:12:58.967Z,88.70
2018-12-12T06:15:27.904Z,88.40
2018-12-12T06:17:56.851Z,87.80
2018-12-12T06:20:25.776Z,86.80
2018-12-12T06:22:54.697Z,86.30
2018-12-12T06:25:27.571Z,84.60
2018-12-12T06:27:56.533Z,85.10
2018-12-12T06:30:25.494Z,83.40
2018-12-12T06:32:54.501Z,83.70
2018-12-12T06:35:23.437Z,80.60
2018-12-12T06:37:52.377Z,79.00
2018-12-12T06:40:21.316Z,79.20
2018-12-12T06:42:50.250Z,81.30
2018-12-12T06:45:19.201Z,82.70
2018-12-12T06:47:48.138Z,82.30
2018-12-12T06:50:17.087Z,83.20
2018-12-12T06:52:46.059Z,84.10
2018-12-12T06:55:14.983Z,84.20
2018-12-12T06:57:44.021Z,85.30
2018-12-12T07:00:13.047Z,85.70
2018-12-12T07:02:41.984Z,86.20
2018-12-12T07:05:10.964Z,86.20
2018-12-12T07:07:39.922Z,86.80
2018-12-12T07:10:08.913Z,86.80
2018-12-12T07:12:37.847Z,86.10
2018-12-12T07:15:08.190Z,86.10
2018-12-12T07:17:37.315Z,85.50
2018-12-12T07:20:06.371Z,85.00
2018-12-12T07:22:35.303Z,85.60
2018-12-12T07:25:04.327Z,85.80
2018-12-12T07:27:33.268Z,84.50
2018-12-12T07:30:02.234Z,84.10
2018-12-12T07:32:31.336Z,83.50
2018-12-12T07:35:00.280Z,84.20
2018-12-12T07:37:29.287Z,82.80
2018-12-12T07:39:58.236Z,82.90
2018-12-12T07:42:27.252Z,82.40
2018-12-12T07:44:56.249Z,83.10
2018-12-12T07:47:25.297Z,82.50
2018-12-12T07:49:54.257Z,82.80
2018-12-12T07:52:23.200Z,82.60
2018-12-12T07:54:52.195Z,82.90
2018-12-12T07:57:21.126Z,83.20
2018-12-12T07:59:50.051Z,83.20
2018-12-12T08:02:19.099Z,83.40
2018-12-12T08:04:48.109Z,84.20
2018-12-12T08:07:17.050Z,84.40
2018-12-12T08:09:45.989Z,84.80
2018-12-12T08:12:14.941Z,85.10
2018-12-12T08:14:43.865Z,84.80
2018-12-12T08:17:12.833Z,84.90
2018-12-12T08:19:41.770Z,87.20
2018-12-12T08:22:10.781Z,87.90
2018-12-12T08:24:39.758Z,85.10
2018-12-12T08:27:08.686Z,80.80
2018-12-12T08:29:37.628Z,75.70
2018-12-12T08:32:06.616Z,71.80
2018-12-12T08:34:35.560Z,67.40
2018-12-12T08:37:04.551Z,66.20
2018-12-12T08:39:33.525Z,63.70
2018-12-12T08:42:02.545Z,61.10
2018-12-12T08:44:31.487Z,61.70
2018-12-12T08:47:00.458Z,62.20
2018-12-12T08:49:29.426Z,59.40
2018-12-12T08:51:58.361Z,57.90
2018-12-12T08:54:27.290Z,56.10
2018-12-12T08:56:56.467Z,55.90
2018-12-12T08:59:25.396Z,55.40
2018-12-12T09:01:54.349Z,56.20
2018-12-12T09:04:23.334Z,55.50
2018-12-12T09:06:52.388Z,53.70
2018-12-12T09:09:21.371Z,53.20
2018-12-12T09:11:50.267Z,54.30
2018-12-12T09:14:19.188Z,54.50
2018-12-12T09:19:23.447Z,53.80
2018-12-12T09:21:52.369Z,54.00
2018-12-12T09:24:21.296Z,52.90
2018-12-12T09:26:50.589Z,53.10
2018-12-12T09:29:19.569Z,52.80
2018-12-12T09:34:23.673Z,50.20
2018-12-12T09:36:52.600Z,48.50
2018-12-12T09:39:21.527Z,47.60
2018-12-12T09:41:50.487Z,48.40
2018-12-12T09:44:19.551Z,46.90
2018-12-12T09:46:48.476Z,46.00
2018-12-12T09:49:17.393Z,47.80
2018-12-12T09:51:46.336Z,49.70
2018-12-12T09:54:15.264Z,51.70
2018-12-12T09:56:44.218Z,53.60
2018-12-12T09:59:13.140Z,56.20
2018-12-12T10:01:42.067Z,57.10
2018-12-12T10:04:11.019Z,58.60
2018-12-12T10:06:39.950Z,59.50
2018-12-12T10:09:08.903Z,61.30
2018-12-12T10:11:37.934Z,62.00
2018-12-12T10:14:06.876Z,62.60
2018-12-12T10:16:35.866Z,61.70
2018-12-12T10:19:04.945Z,62.30
2018-12-12T10:21:33.888Z,62.20
2018-12-12T10:24:02.826Z,61.90
2018-12-12T10:26:31.988Z,62.70
2018-12-12T10:29:01.144Z,62.40
2018-12-12T10:31:30.134Z,63.10
2018-12-12T10:33:59.065Z,63.40
2018-12-12T10:36:28.022Z,64.40
2018-12-12T10:38:57.068Z,64.10
2018-12-12T10:41:26.010Z,63.80
2018-12-12T10:43:54.988Z,63.50
2018-12-12T10:46:23.958Z,63.30
2018-12-12T10:48:52.899Z,62.40
2018-12-12T10:51:21.828Z,62.90
2018-12-12T10:53:50.768Z,63.40
2018-12-12T10:56:19.710Z,63.40
2018-12-12T10:58:48.618Z,64.10
2018-12-12T11:01:23.171Z,63.20
2018-12-12T11:03:55.841Z,63.90
2018-12-12T11:06:24.846Z,64.20
2018-12-12T11:08:53.784Z,65.20
2018-12-12T11:11:22.717Z,64.70
2018-12-12T11:13:51.653Z,64.80
2018-12-12T11:16:20.586Z,65.20
2018-12-12T11:18:49.561Z,65.90
2018-12-12T11:21:18.485Z,65.70
2018-12-12T11:23:47.416Z,65.90
2018-12-12T11:26:16.353Z,65.60
2018-12-12T11:28:45.303Z,63.80
2018-12-12T11:31:14.236Z,63.60
2018-12-12T11:33:43.189Z,61.70
2018-12-12T11:36:12.268Z,62.40
2018-12-12T11:38:41.188Z,62.40
2018-12-12T11:41:10.130Z,62.30
2018-12-12T11:43:39.066Z,63.00
2018-12-12T11:46:08.004Z,63.70
2018-12-12T11:48:36.934Z,63.90
2018-12-12T11:51:05.901Z,65.20
2018-12-12T11:53:34.899Z,64.70
2018-12-12T11:56:03.835Z,65.20
2018-12-12T11:58:32.860Z,65.00
2018-12-12T12:01:01.872Z,64.90
2018-12-12T12:03:30.786Z,66.20
2018-12-12T12:05:59.713Z,65.80
2018-12-12T12:08:28.657Z,64.40
2018-12-12T12:10:57.588Z,64.60
2018-12-12T12:13:26.545Z,65.30
2018-12-12T12:15:55.473Z,65.20
2018-12-12T12:18:24.417Z,61.70
2018-12-12T12:20:53.344Z,58.20
2018-12-12T12:23:22.272Z,54.00
2018-12-12T12:25:51.645Z,53.30
2018-12-12T12:28:20.583Z,51.70
2018-12-12T12:30:49.539Z,50.60
2018-12-12T12:33:18.538Z,52.50
2018-12-12T12:35:47.480Z,51.10
2018-12-12T12:38:16.487Z,49.70
2018-12-12T12:40:45.469Z,48.60
2018-12-12T12:43:14.403Z,47.30
2018-12-12T12:45:43.325Z,47.10
2018-12-12T12:48:12.317Z,47.20
2018-12-12T12:50:41.233Z,49.70
2018-12-12T12:53:10.196Z,48.30
2018-12-12T12:55:39.205Z,46.50
2018-12-12T12:58:08.145Z,47.00
2018-12-12T13:00:37.086Z,47.40
2018-12-12T13:03:06.019Z,46.10
2018-12-12T13:05:34.951Z,46.00
2018-12-12T13:08:03.916Z,46.90
2018-12-12T13:10:33.116Z,47.80
2018-12-12T13:13:02.174Z,48.40
2018-12-12T13:15:31.156Z,47.20
2018-12-12T13:18:00.311Z,49.30
2018-12-12T13:20:29.218Z,49.50
2018-12-12T13:22:58.191Z,50.50
2018-12-12T13:25:27.120Z,52.50
2018-12-12T13:27:56.122Z,54.20
2018-12-12T13:30:25.033Z,55.00
2018-12-12T13:32:53.990Z,55.10
2018-12-12T13:35:22.962Z,55.30
2018-12-12T13:37:51.976Z,54.70
2018-12-12T13:40:20.940Z,54.40
2018-12-12T13:42:49.865Z,55.00
2018-12-12T13:45:18.800Z,55.60
2018-12-12T13:47:47.751Z,56.30
2018-12-12T13:50:16.846Z,56.30
2018-12-12T13:52:45.743Z,56.20
2018-12-12T13:55:14.709Z,56.20
2018-12-12T13:57:43.669Z,55.70
2018-12-12T14:00:12.744Z,56.50
2018-12-12T14:02:41.729Z,56.50
2018-12-12T14:05:10.678Z,57.30
2018-12-12T14:07:39.705Z,58.60
2018-12-12T14:10:08.716Z,57.00
2018-12-12T14:12:37.631Z,57.40
2018-12-12T14:15:06.743Z,57.60
2018-12-12T14:17:35.740Z,58.60
2018-12-12T14:20:06.460Z,57.90
2018-12-12T14:22:35.415Z,58.10
2018-12-12T14:25:04.752Z,58.70
2018-12-12T14:27:38.858Z,59.50
2018-12-12T14:30:07.998Z,60.00
2018-12-12T14:32:36.980Z,60.30
2018-12-12T14:35:06.048Z,60.70
2018-12-12T14:37:34.985Z,61.00
2018-12-12T14:40:05.565Z,61.10
2018-12-12T14:42:34.522Z,61.00
2018-12-12T14:45:03.774Z,61.30
2018-12-12T14:47:32.700Z,61.20
2018-12-12T14:50:01.668Z,60.90
2018-12-12T14:52:30.602Z,61.50
2018-12-12T14:54:59.579Z,62.00
2018-12-12T14:57:28.587Z,62.90
2018-12-12T14:59:57.550Z,62.60
2018-12-12T15:02:26.556Z,62.80
2018-12-12T15:04:55.492Z,63.10
2018-12-12T15:07:24.443Z,63.60
2018-12-12T15:09:53.409Z,63.50
2018-12-12T15:12:22.461Z,63.60
2018-12-12T15:14:51.430Z,63.80
2018-12-12T15:17:20.366Z,64.10
2018-12-12T15:19:49.338Z,64.30
2018-12-12T15:22:18.528Z,64.10
2018-12-12T15:24:47.504Z,64.80
2018-12-12T15:27:16.517Z,64.60
2018-12-12T15:29:45.469Z,64.80
2018-12-12T15:32:14.393Z,65.30
2018-12-12T15:34:43.377Z,65.80
2018-12-12T15:37:13.244Z,65.90
2018-12-12T15:39:42.230Z,66.20
2018-12-12T15:42:11.157Z,66.30
2018-12-12T15:44:40.141Z,66.40
2018-12-12T15:47:09.099Z,66.90
2018-12-12T15:49:38.049Z,67.30
2018-12-12T15:52:06.993Z,67.70
2018-12-12T15:54:36.965Z,67.90
2018-12-12T15:57:05.892Z,68.20
2018-12-12T15:59:34.859Z,68.80
2018-12-12T16:02:03.910Z,69.30
2018-12-12T16:04:32.888Z,69.40
2018-12-12T16:07:02.749Z,69.00
2018-12-12T16:09:31.734Z,68.10
2018-12-12T16:12:00.669Z,67.70
2018-12-12T16:14:29.714Z,67.90
2018-12-12T16:16:58.669Z,67.60
2018-12-12T16:19:27.629Z,67.90
2018-12-12T16:21:56.554Z,68.50
2018-12-12T16:24:26.584Z,68.90
2018-12-12T16:26:55.737Z,70.20
2018-12-12T16:29:24.681Z,71.40
2018-12-12T16:31:53.669Z,72.20
2018-12-12T16:34:22.613Z,72.50
2018-12-12T16:36:51.601Z,73.20
2018-12-12T16:39:20.546Z,73.20
2018-12-12T16:41:49.626Z,73.20
2018-12-12T16:44:18.553Z,74.30
2018-12-12T16:46:47.517Z,74.50
2018-12-12T16:49:16.453Z,74.40
2018-12-12T16:51:45.451Z,74.90
2018-12-12T16:54:14.390Z,74.60
2018-12-12T16:56:43.379Z,75.00
2018-12-12T16:59:12.322Z,75.10
2018-12-12T17:01:41.363Z,75.40
2018-12-12T17:04:10.312Z,76.00
2018-12-12T17:06:39.269Z,76.40
2018-12-12T17:09:08.692Z,76.80
2018-12-12T17:11:37.668Z,77.30
2018-12-12T17:14:06.664Z,77.40
2018-12-12T17:16:35.629Z,77.00
2018-12-12T17:19:04.613Z,76.80
2018-12-12T17:21:33.670Z,76.60
2018-12-12T17:24:02.621Z,76.10
2018-12-12T17:26:31.605Z,75.40
2018-12-12T17:29:00.536Z,75.50
2018-12-12T17:31:29.510Z,77.20
2018-12-12T17:33:58.481Z,76.00
2018-12-12T17:36:27.461Z,76.20
2018-12-12T17:38:56.405Z,75.30
2018-12-12T17:41:25.474Z,75.30
2018-12-12T17:43:54.446Z,74.70
2018-12-12T17:46:23.397Z,74.80
2018-12-12T17:48:52.318Z,74.10
2018-12-12T17:51:21.280Z,74.10
2018-12-12T17:53:50.204Z,74.70
2018-12-12T17:56:19.196Z,74.10
2018-12-12T17:58:48.150Z,74.10
2018-12-12T18:01:17.193Z,74.20
2018-12-12T18:03:46.129Z,74.10
2018-12-12T18:06:15.121Z,74.30
2018-12-12T18:08:44.054Z,74.40
2018-12-12T18:11:13.048Z,74.90
2018-12-12T18:13:42.008Z,73.30
2018-12-12T18:16:10.963Z,73.70
2018-12-12T18:18:39.950Z,73.40
2018-12-12T18:21:08.921Z,73.30
2018-12-12T18:23:37.845Z,73.40
2018-12-12T18:26:06.852Z,74.80
2018-12-12T18:28:35.830Z,74.30
2018-12-12T18:31:04.823Z,74.70
2018-12-12T18:33:33.814Z,75.40
2018-12-12T18:36:02.901Z,75.80
2018-12-12T18:38:31.895Z,76.90
2018-12-12T18:41:00.960Z,75.30
2018-12-12T18:43:29.899Z,75.50
2018-12-12T18:45:58.942Z,76.10
2018-12-12T18:48:27.864Z,77.30
2018-12-12T18:50:56.950Z,76.20
2018-12-12T18:53:25.864Z,76.30
2018-12-12T18:55:54.880Z,76.90
2018-12-12T18:58:23.807Z,77.30
2018-12-12T19:00:52.827Z,77.20
2018-12-12T19:03:21.742Z,76.40
2018-12-12T19:05:50.704Z,76.60
2018-12-12T19:08:19.655Z,76.20
2018-12-12T19:10:48.616Z,75.70
2018-12-12T19:13:17.656Z,75.70
2018-12-12T19:15:46.610Z,75.50
2018-12-12T19:18:15.634Z,75.40
2018-12-12T19:20:44.585Z,75.50
2018-12-12T19:23:13.753Z,75.30
2018-12-12T19:25:42.699Z,75.10
2018-12-12T19:28:11.642Z,74.90
2018-12-12T19:30:40.626Z,74.80
2018-12-12T19:33:09.605Z,75.20
2018-12-12T19:35:38.644Z,75.20
2018-12-12T19:38:07.571Z,75.40
2018-12-12T19:40:36.544Z,75.90
2018-12-12T19:43:05.506Z,76.00
2018-12-12T19:45:34.501Z,76.10
2018-12-12T19:48:03.419Z,76.30
2018-12-12T19:50:32.414Z,76.20
2018-12-12T19:53:01.354Z,76.00
2018-12-12T19:55:30.311Z,75.90
2018-12-12T19:57:59.231Z,75.70
2018-12-12T20:00:28.158Z,76.40
2018-12-12T20:02:57.172Z,76.10
2018-12-12T20:05:26.126Z,75.80
2018-12-12T20:07:55.118Z,76.40
2018-12-12T20:10:24.054Z,76.20
2018-12-12T20:12:53.277Z,76.60
2018-12-12T20:15:27.716Z,76.70
2018-12-12T20:17:56.717Z,76.90
2018-12-12T20:20:25.702Z,76.30
2018-12-12T20:22:54.781Z,76.70
2018-12-12T20:25:23.748Z,77.60
2018-12-12T20:27:52.714Z,77.40
2018-12-12T20:30:22.495Z,77.40
2018-12-12T20:32:51.472Z,77.70
2018-12-12T20:35:20.421Z,78.30
2018-12-12T20:37:49.418Z,78.30
2018-12-12T20:40:18.352Z,77.90
2018-12-12T20:42:47.325Z,78.00
2018-12-12T20:45:16.284Z,78.10
2018-12-12T20:47:45.292Z,78.00
2018-12-12T20:50:14.243Z,78.10
2018-12-12T20:52:43.231Z,78.10
2018-12-12T20:55:12.168Z,78.60
2018-12-12T20:57:41.156Z,78.70
2018-12-12T21:00:10.363Z,79.10
2018-12-12T21:02:39.329Z,78.90
2018-12-12T21:05:08.277Z,79.00
2018-12-12T21:07:37.238Z,79.30
2018-12-12T21:10:07.231Z,79.30
2018-12-12T21:12:36.233Z,79.00
2018-12-12T21:17:50.070Z,79.90
2018-12-12T21:20:19.029Z,79.70
2018-12-12T21:22:48.025Z,79.60
2018-12-12T21:25:16.955Z,79.30
2018-12-12T21:27:46.005Z,79.70
2018-12-12T21:30:17.347Z,79.50
2018-12-12T21:32:46.555Z,79.30
2018-12-12T21:35:15.491Z,79.40
2018-12-12T21:37:44.534Z,79.60
2018-12-12T21:40:13.558Z,80.30
2018-12-12T21:42:42.673Z,80.00
2018-12-12T21:45:11.599Z,81.00
2018-12-12T21:47:40.549Z,80.80
2018-12-12T21:50:09.708Z,81.00
2018-12-12T21:52:38.664Z,81.00
2018-12-12T21:55:07.681Z,81.40
2018-12-12T21:57:36.664Z,81.80
2018-12-12T22:00:07.867Z,81.40
2018-12-12T22:02:37.450Z,81.90
2018-12-12T22:05:06.506Z,82.50
2018-12-12T22:07:35.480Z,82.90
2018-12-12T22:10:05.771Z,83.40
2018-12-12T22:12:34.766Z,84.00
2018-12-12T22:15:04.468Z,84.70
2018-12-12T22:17:33.556Z,86.30
2018-12-12T22:20:02.553Z,85.60
2018-12-12T22:22:31.496Z,85.60
2018-12-12T22:25:00.466Z,85.80
2018-12-12T22:27:29.414Z,85.90
2018-12-12T22:29:58.381Z,85.90
2018-12-12T22:32:27.400Z,86.40
2018-12-12T22:34:56.295Z,86.10
2018-12-12T22:37:25.264Z,86.40
2018-12-12T22:39:54.194Z,86.80
2018-12-12T22:42:23.214Z,87.30
2018-12-12T22:44:52.138Z,86.80
2018-12-12T22:47:21.132Z,87.00
2018-12-12T22:49:50.065Z,87.30
2018-12-12T22:52:18.983Z,87.60
2018-12-12T22:54:48.016Z,88.30
2018-12-12T22:57:16.928Z,88.80
2018-12-12T22:59:45.869Z,89.70
2018-12-12T23:02:14.909Z,88.80
2018-12-12T23:04:43.860Z,89.30
2018-12-12T23:07:12.790Z,89.10
2018-12-12T23:09:41.757Z,89.40
2018-12-12T23:12:10.747Z,89.60
2018-12-12T23:14:39.670Z,90.20
2018-12-12T23:17:08.605Z,89.80
2018-12-12T23:19:37.534Z,90.30
2018-12-12T23:22:06.504Z,90.90
2018-12-12T23:27:13.544Z,91.20
2018-12-12T23:29:42.460Z,91.30
2018-12-12T23:32:11.518Z,91.60
2018-12-12T23:34:40.442Z,92.30
2018-12-12T23:37:09.378Z,92.40
2018-12-12T23:39:38.372Z,92.60
2018-12-12T23:42:07.309Z,93.40
2018-12-12T23:44:36.266Z,93.50
2018-12-12T23:47:05.227Z,94.10
2018-12-12T23:49:34.136Z,94.30
2018-12-12T23:52:03.078Z,95.10
2018-12-12T23:54:32.027Z,95.10
2018-12-12T23:57:00.992Z,95.60
2018-12-12T23:59:29.941Z,96.20
